Pagrindinis puslapis
METAR-TAF:

METAR-TAF

Oro uostai :

Kerdla, Estija

platuma: 58-59N, ilguma: 022-49E, Aukštis: 5 m

Dabartinis oras

Ataskaita buvo paskelbta 1 valandą ir 8 minutes, ne 08:50 UTC
Vėjas 15 kt iš Pietvakarių su gūsio iki 31 kt, svyruoja nuo Pietų ir Vakarų
Temperatūra 6°C
Drėgmė 81%
Slėgis 996 hPa
Matomumas 10 km arba daugiau
Išsisklaidę debesys ne aukštis 1500 ft
Su prošvaistėmis ne aukštis 3300 ft

METAR: EEKA 180850Z 23015G31KT 190V270 9999 SCT015 BKN033 06/03 Q0996

Laikas: 11:58 (09:58 UTC)

Prognozė

Ataskaita buvo paskelbta 5 valandos ir 58 minutes, ne 04:00 UTC
Prognozė galioja nuo 18 metu 05 UTC su 18 metu 11 UTC
Vėjas 15 kt iš Pietvakarių su gūsio iki 25 kt
Matomumas 10 km arba daugiau
Su prošvaistėmis ne aukštis 2000 ft
Laikinai
nuo 18 metu 05 UTC su 18 metu 11 UTC
Vėjas 25 kt iš Pietvakarių su gūsio iki 35 kt

TAF: EEKA 180400Z 1805/1811 22015G25KT 9999 BKN020 TEMPO 1805/1811 22025G35KT

Orai ataskaitas ir orų prognozės (METAR, TAF).

turimą stotys yra geltonos ir raudonos taškus žemėlapyje.

Perkelti pele per norėdami pamatyti stoties vardą.

Tada spustelėkite, norėdami matyti oro stebėjimo ir prognozės.

Norėdami pakeisti žemėlapį: spustelėkite ant žalios mygtukų su juodo kryžiaus žemyn,; žalią mygtuką su brūkšneliu, jei norite nutolinti; arba žalių rodyklių gretimoms žemėlapius.


METAR-TAF: